KMWA/MWA METAR and TAF weather

Enter ICAO airport designator
Station Type Date Time Source
KMWA METAR 2021/07/26 11:45 UTC NOAA

KMWA 261145Z 03005KT 1/4SM FG OVC003 24/24 A3000


Station Type Date Time Source
KMWA Decoded METAR 2021/07/26 11:45 UTC NOAA

Marion, Williamson County Regional Airport, IL, United States (KMWA) 37-45-01N 089-00-04W
Jul 26, 2021 - 07:45 AM EDT / 2021.07.26 1145 UTC
Wind: from the NNE (030 degrees) at 6 MPH (5 KT):0
Visibility: 1/4 mile(s):0
Sky conditions: overcast
Weather: fog
Temperature: 75 F (24 C)
Dew Point: 75 F (24 C)
Relative Humidity: 100%
Pressure (altimeter): 30 in. Hg (1015 hPa)
ob: KMWA 261145Z 03005KT 1/4SM FG OVC003 24/24 A3000
cycle: 12

Station Type Date Time Source
KMWA TAF UTC NOAA

Error!

Example: see airport list